createdAt,value
2023-05-14T00:00:44.598Z,76.84
2023-05-14T00:01:48.482Z,76.02
2023-05-14T00:02:52.305Z,76.02
2023-05-14T00:03:55.807Z,76.07
2023-05-14T00:04:59.391Z,76.56
2023-05-14T00:06:02.988Z,75.89
2023-05-14T00:07:06.226Z,75.86
2023-05-14T00:08:09.625Z,76.69
2023-05-14T00:09:13.648Z,76.27
2023-05-14T00:10:18.169Z,76.99
2023-05-14T00:11:21.909Z,76.16
2023-05-14T00:12:25.438Z,76.47
2023-05-14T00:13:28.713Z,77.26
2023-05-14T00:14:32.003Z,77.10
2023-05-14T00:15:35.520Z,76.56
2023-05-14T00:16:39.298Z,76.22
2023-05-14T00:17:43.504Z,76.78
2023-05-14T00:18:47.043Z,76.82
2023-05-14T00:19:50.678Z,76.38
2023-05-14T00:20:55.290Z,76.98
2023-05-14T00:21:58.755Z,77.10
2023-05-14T00:23:02.234Z,76.69
2023-05-14T00:24:05.720Z,76.54
2023-05-14T00:25:09.675Z,76.88
2023-05-14T00:26:13.252Z,77.11
2023-05-14T00:27:17.385Z,76.66
2023-05-14T00:28:20.764Z,76.77
2023-05-14T00:29:24.894Z,77.66
2023-05-14T00:30:28.189Z,78.20
2023-05-14T00:31:31.289Z,77.61
2023-05-14T00:32:34.616Z,77.91
2023-05-14T00:33:37.606Z,76.96
2023-05-14T00:34:41.355Z,77.47
2023-05-14T00:35:45.025Z,78.07
2023-05-14T00:36:48.578Z,77.48
2023-05-14T00:37:51.896Z,76.99
2023-05-14T00:38:55.124Z,76.67
2023-05-14T00:39:59.025Z,77.34
2023-05-14T00:41:02.735Z,76.86
2023-05-14T00:42:06.982Z,77.21
2023-05-14T00:43:10.426Z,77.99
2023-05-14T00:44:14.186Z,76.82
2023-05-14T00:45:17.937Z,76.98
2023-05-14T00:46:21.142Z,77.71
2023-05-14T00:47:24.242Z,77.05
2023-05-14T00:48:27.661Z,76.72
2023-05-14T00:49:31.556Z,77.13
2023-05-14T00:50:35.178Z,76.92
2023-05-14T00:51:38.591Z,77.25
2023-05-14T00:52:42.324Z,76.71
2023-05-14T00:53:46.757Z,76.77
2023-05-14T00:54:50.452Z,76.45
2023-05-14T00:55:54.115Z,76.54
2023-05-14T00:56:57.904Z,76.72
2023-05-14T00:58:01.394Z,77.07
2023-05-14T00:59:05.103Z,76.99
2023-05-14T01:00:09.829Z,77.42
2023-05-14T01:01:16.418Z,77.91
2023-05-14T01:02:19.770Z,77.81
2023-05-14T01:03:23.755Z,76.79
2023-05-14T01:04:27.709Z,77.01
2023-05-14T01:05:41.418Z,77.37
2023-05-14T01:06:53.292Z,78.33
2023-05-14T01:08:07.742Z,77.82
2023-05-14T01:09:51.342Z,77.39
2023-05-14T01:11:18.087Z,77.53
2023-05-14T01:12:41.641Z,78.72
2023-05-14T01:14:15.390Z,78.35
2023-05-14T01:15:22.901Z,78.03
2023-05-14T01:16:27.881Z,78.03
2023-05-14T01:17:33.257Z,78.40
2023-05-14T01:18:37.224Z,78.70
2023-05-14T01:19:41.735Z,78.18
2023-05-14T01:20:46.240Z,78.24
2023-05-14T01:21:49.717Z,78.31
2023-05-14T01:22:54.107Z,78.50
2023-05-14T01:23:57.606Z,78.25
2023-05-14T01:25:01.335Z,78.35
2023-05-14T01:26:05.468Z,78.12
2023-05-14T01:27:32.938Z,78.18
2023-05-14T01:28:36.942Z,78.19
2023-05-14T01:29:41.652Z,77.92
2023-05-14T01:30:58.515Z,78.20
2023-05-14T01:32:02.328Z,78.10
2023-05-14T01:33:12.739Z,77.72
2023-05-14T01:34:20.802Z,77.69
2023-05-14T01:35:27.949Z,77.92
2023-05-14T01:36:31.827Z,78.22
2023-05-14T01:37:35.073Z,77.37
2023-05-14T01:38:38.819Z,77.49
2023-05-14T01:39:42.485Z,77.78
2023-05-14T01:40:46.635Z,77.93
2023-05-14T01:41:50.603Z,77.95
2023-05-14T01:42:54.593Z,78.52
2023-05-14T01:43:57.857Z,78.40
2023-05-14T01:45:01.320Z,78.21
2023-05-14T01:46:05.844Z,78.23
2023-05-14T01:47:09.455Z,78.01
2023-05-14T01:48:12.510Z,78.38
2023-05-14T01:49:18.974Z,78.31
2023-05-14T01:50:22.459Z,77.95
2023-05-14T01:51:25.924Z,78.02
2023-05-14T01:52:28.885Z,78.38
2023-05-14T01:53:31.956Z,78.39
2023-05-14T01:54:35.226Z,78.31
2023-05-14T01:55:39.243Z,78.84
2023-05-14T01:56:42.747Z,78.90
2023-05-14T01:57:46.206Z,78.49
2023-05-14T01:58:49.819Z,78.59
2023-05-14T01:59:53.373Z,78.96
2023-05-14T02:00:57.011Z,78.77
2023-05-14T02:02:00.480Z,78.10
2023-05-14T02:03:04.747Z,78.32
2023-05-14T02:04:08.207Z,77.97
2023-05-14T02:05:12.921Z,78.15
2023-05-14T02:06:15.942Z,78.16
2023-05-14T02:07:19.002Z,78.26
2023-05-14T02:08:22.018Z,78.85
2023-05-14T02:09:25.735Z,78.56
2023-05-14T02:10:29.088Z,78.89
2023-05-14T02:11:31.929Z,78.98
2023-05-14T02:12:35.446Z,78.51
2023-05-14T02:13:38.846Z,78.73
2023-05-14T02:14:41.764Z,78.64
2023-05-14T02:15:45.028Z,78.52
2023-05-14T02:16:48.247Z,78.99
2023-05-14T02:17:51.947Z,78.49
2023-05-14T02:18:55.713Z,79.39
2023-05-14T02:19:59.331Z,78.84
2023-05-14T02:21:02.552Z,78.82
2023-05-14T02:22:06.257Z,78.90
2023-05-14T02:23:10.448Z,79.49
2023-05-14T02:24:14.022Z,80.34
2023-05-14T02:25:17.027Z,79.80
2023-05-14T02:26:20.805Z,80.06
2023-05-14T02:27:24.220Z,80.34
2023-05-14T02:28:27.946Z,80.32
2023-05-14T02:29:31.567Z,79.76
2023-05-14T02:30:34.593Z,80.38
2023-05-14T02:31:38.482Z,80.58
2023-05-14T02:32:42.522Z,80.68
2023-05-14T02:33:46.379Z,80.24
2023-05-14T02:34:49.795Z,79.79
2023-05-14T02:35:53.271Z,80.84
2023-05-14T02:36:56.756Z,80.89
2023-05-14T02:38:00.159Z,80.96
2023-05-14T02:39:05.378Z,81.04
2023-05-14T02:40:10.032Z,80.70
2023-05-14T02:41:12.872Z,80.68
2023-05-14T02:42:16.253Z,80.64
2023-05-14T02:43:19.885Z,80.19
2023-05-14T02:44:23.331Z,80.88
2023-05-14T02:45:26.651Z,81.15
2023-05-14T02:46:31.549Z,81.13
2023-05-14T02:47:37.561Z,81.01
2023-05-14T02:48:41.912Z,81.20
2023-05-14T02:49:45.715Z,80.84
2023-05-14T02:50:50.581Z,81.33
2023-05-14T02:51:55.316Z,81.24
2023-05-14T02:52:58.525Z,81.42
2023-05-14T02:54:01.768Z,81.14
2023-05-14T02:55:06.120Z,81.22
2023-05-14T02:56:10.069Z,81.16
2023-05-14T02:57:13.292Z,81.24
2023-05-14T02:58:16.896Z,80.98
2023-05-14T02:59:20.518Z,81.30
2023-05-14T03:00:24.627Z,81.46
2023-05-14T03:01:28.570Z,80.68
2023-05-14T03:02:32.369Z,80.51
2023-05-14T03:03:36.657Z,81.34
2023-05-14T03:04:40.285Z,81.27
2023-05-14T03:05:44.017Z,81.42
2023-05-14T03:06:47.676Z,82.04
2023-05-14T03:07:52.335Z,82.40
2023-05-14T03:08:55.908Z,82.50
2023-05-14T03:10:00.804Z,82.65
2023-05-14T03:11:04.419Z,82.48
2023-05-14T03:12:08.561Z,82.41
2023-05-14T03:13:12.060Z,82.67
2023-05-14T03:14:15.075Z,81.97
2023-05-14T03:15:18.268Z,82.52
2023-05-14T03:16:21.301Z,82.35
2023-05-14T03:17:25.123Z,82.68
2023-05-14T03:18:31.172Z,82.58
2023-05-14T03:19:34.610Z,82.64
2023-05-14T03:20:38.243Z,82.56
2023-05-14T03:21:42.800Z,82.54
2023-05-14T03:22:46.558Z,82.51
2023-05-14T03:23:50.383Z,81.94
2023-05-14T03:24:55.380Z,81.57
2023-05-14T03:25:59.206Z,81.36
2023-05-14T03:27:03.038Z,81.86
2023-05-14T03:28:06.810Z,81.82
2023-05-14T03:29:11.728Z,81.76
2023-05-14T03:30:16.909Z,81.98
2023-05-14T03:31:19.917Z,81.88
2023-05-14T03:32:23.386Z,82.34
2023-05-14T03:33:26.897Z,81.95
2023-05-14T03:34:30.261Z,82.24
2023-05-14T03:35:33.552Z,81.91
2023-05-14T03:36:40.371Z,82.23
2023-05-14T03:37:43.512Z,81.76
2023-05-14T03:38:46.932Z,81.86
2023-05-14T03:39:51.488Z,81.48
2023-05-14T03:40:54.491Z,81.90
2023-05-14T03:41:59.263Z,81.69
2023-05-14T03:43:02.727Z,81.99
2023-05-14T03:44:07.270Z,81.83
2023-05-14T03:45:11.003Z,81.68
2023-05-14T03:46:14.842Z,81.52
2023-05-14T03:47:18.201Z,81.30
2023-05-14T03:48:21.650Z,82.01
2023-05-14T03:49:26.154Z,81.76
2023-05-14T03:50:29.375Z,81.87
2023-05-14T03:51:32.426Z,81.51
2023-05-14T03:52:36.117Z,81.47
2023-05-14T03:53:39.324Z,81.65
2023-05-14T03:54:43.176Z,81.61
2023-05-14T03:55:46.851Z,81.64
2023-05-14T03:56:50.382Z,81.93
2023-05-14T03:57:53.694Z,82.29
2023-05-14T03:58:57.293Z,82.60
2023-05-14T04:00:00.702Z,82.78
2023-05-14T04:01:03.676Z,82.55
2023-05-14T04:02:07.683Z,82.47
2023-05-14T04:03:11.657Z,82.20
2023-05-14T04:04:15.158Z,82.07
2023-05-14T04:05:18.297Z,81.82
2023-05-14T04:06:22.188Z,82.00
2023-05-14T04:07:26.058Z,81.68
2023-05-14T04:08:29.537Z,81.83
2023-05-14T04:09:33.175Z,82.17
2023-05-14T04:10:36.926Z,81.95
2023-05-14T04:11:40.659Z,82.10
2023-05-14T04:12:43.929Z,81.75
2023-05-14T04:13:47.083Z,81.63
2023-05-14T04:14:51.098Z,81.53
2023-05-14T04:15:54.122Z,81.52
2023-05-14T04:16:58.995Z,81.81
2023-05-14T04:18:03.632Z,81.73
2023-05-14T04:19:06.930Z,82.13
2023-05-14T04:20:11.253Z,81.88
2023-05-14T04:21:14.727Z,82.16
2023-05-14T04:22:17.815Z,82.46
2023-05-14T04:23:21.149Z,81.97
2023-05-14T04:24:24.837Z,82.02
2023-05-14T04:25:28.429Z,82.32
2023-05-14T04:26:31.469Z,82.01
2023-05-14T04:27:35.327Z,81.77
2023-05-14T04:28:38.634Z,81.68
2023-05-14T04:29:41.965Z,81.87
2023-05-14T04:30:46.252Z,81.68
2023-05-14T04:31:50.672Z,82.42
2023-05-14T04:32:53.766Z,82.54
2023-05-14T04:33:57.199Z,82.41
2023-05-14T04:35:00.496Z,82.43
2023-05-14T04:36:03.539Z,82.51
2023-05-14T04:37:07.362Z,82.46
2023-05-14T04:38:12.290Z,82.29
2023-05-14T04:39:15.578Z,82.33
2023-05-14T04:40:19.861Z,82.92
2023-05-14T04:41:23.511Z,82.74
2023-05-14T04:42:26.963Z,82.70
2023-05-14T04:43:30.722Z,82.66
2023-05-14T04:44:35.076Z,82.51
2023-05-14T04:45:38.763Z,82.56
2023-05-14T04:46:42.465Z,82.50
2023-05-14T04:47:47.307Z,82.59
2023-05-14T04:48:51.329Z,82.39
2023-05-14T04:49:54.456Z,82.26
2023-05-14T04:50:57.415Z,82.20
2023-05-14T04:52:00.602Z,82.29
2023-05-14T04:53:04.301Z,82.30
2023-05-14T04:54:07.743Z,81.98
2023-05-14T04:55:11.341Z,81.81
2023-05-14T04:56:14.898Z,81.67
2023-05-14T04:57:18.084Z,81.45
2023-05-14T04:58:21.938Z,81.54
2023-05-14T04:59:25.764Z,81.47
2023-05-14T05:00:29.709Z,81.58
2023-05-14T05:01:33.023Z,81.23
2023-05-14T05:02:36.808Z,81.47
2023-05-14T05:03:40.147Z,81.63
2023-05-14T05:04:43.314Z,81.89
2023-05-14T05:05:46.982Z,81.46
2023-05-14T05:06:50.731Z,81.03
2023-05-14T05:07:54.349Z,80.83
2023-05-14T05:08:59.067Z,80.88
2023-05-14T05:10:04.431Z,81.26
2023-05-14T05:11:07.836Z,81.75
2023-05-14T05:12:11.045Z,82.36
2023-05-14T05:13:14.464Z,82.39
2023-05-14T05:14:18.327Z,82.26
2023-05-14T05:15:22.366Z,82.29
2023-05-14T05:16:26.834Z,82.21
2023-05-14T05:17:30.876Z,82.10
2023-05-14T05:18:34.174Z,82.32
2023-05-14T05:19:43.812Z,82.11
2023-05-14T05:20:47.882Z,81.58
2023-05-14T05:21:51.695Z,81.49
2023-05-14T05:22:54.862Z,81.47
2023-05-14T05:23:58.530Z,81.99
2023-05-14T05:25:02.107Z,81.53
2023-05-14T05:26:05.598Z,81.60
2023-05-14T05:27:08.648Z,81.67
2023-05-14T05:28:11.842Z,81.59
2023-05-14T05:29:15.220Z,81.31
2023-05-14T05:30:18.097Z,81.29
2023-05-14T05:31:21.877Z,81.52
2023-05-14T05:32:25.958Z,81.57
2023-05-14T05:33:29.188Z,81.81
2023-05-14T05:34:32.820Z,82.05
2023-05-14T05:35:35.802Z,81.72
2023-05-14T05:36:38.695Z,81.46
2023-05-14T05:37:43.059Z,80.89
2023-05-14T05:38:46.458Z,80.56
2023-05-14T05:39:49.984Z,80.57
2023-05-14T05:40:53.969Z,80.77
2023-05-14T05:41:56.893Z,80.57
2023-05-14T05:42:59.674Z,80.13
2023-05-14T05:44:03.370Z,80.19
2023-05-14T05:45:07.602Z,79.77
2023-05-14T05:46:11.096Z,79.55
2023-05-14T05:47:14.264Z,79.47
2023-05-14T05:48:17.550Z,79.15
2023-05-14T05:49:20.761Z,79.06
2023-05-14T05:50:25.402Z,78.86
2023-05-14T05:51:29.140Z,78.83
2023-05-14T05:52:32.559Z,78.81
2023-05-14T05:53:36.246Z,78.49
2023-05-14T05:54:40.326Z,78.18
2023-05-14T05:55:43.473Z,77.91
2023-05-14T05:56:47.018Z,77.30
2023-05-14T05:57:50.330Z,76.59
2023-05-14T05:58:53.737Z,75.79
2023-05-14T05:59:57.416Z,74.27
2023-05-14T06:01:01.227Z,72.02
2023-05-14T06:02:04.745Z,69.57
2023-05-14T06:03:08.331Z,67.33
2023-05-14T06:04:11.914Z,64.89
2023-05-14T06:05:15.605Z,62.50
2023-05-14T06:06:19.164Z,60.43
2023-05-14T06:07:22.721Z,57.20
2023-05-14T06:08:26.074Z,56.16
2023-05-14T06:09:29.580Z,54.86
2023-05-14T06:10:35.042Z,53.30
2023-05-14T06:11:38.557Z,52.35
2023-05-14T06:12:42.268Z,50.92
2023-05-14T06:13:45.754Z,49.25
2023-05-14T06:14:49.122Z,47.97
2023-05-14T06:15:52.697Z,46.87
2023-05-14T06:16:55.987Z,46.46
2023-05-14T06:17:59.441Z,45.65
2023-05-14T06:19:03.389Z,45.23
2023-05-14T06:20:08.494Z,44.29
2023-05-14T06:21:11.661Z,43.31
2023-05-14T06:22:15.306Z,42.32
2023-05-14T06:23:18.928Z,41.21
2023-05-14T06:24:22.210Z,41.28
2023-05-14T06:25:25.533Z,40.34
2023-05-14T06:26:28.518Z,39.20
2023-05-14T06:27:31.532Z,38.44
2023-05-14T06:28:35.033Z,37.65
2023-05-14T06:29:39.106Z,36.88
2023-05-14T06:30:42.478Z,36.58
2023-05-14T06:31:46.074Z,36.56
2023-05-14T06:32:49.203Z,35.53
2023-05-14T06:33:52.230Z,35.34
2023-05-14T06:34:55.811Z,34.63
2023-05-14T06:36:05.726Z,34.05
2023-05-14T06:37:10.487Z,33.23
2023-05-14T06:38:14.184Z,33.30
2023-05-14T06:39:17.504Z,33.23
2023-05-14T06:40:21.293Z,32.39
2023-05-14T06:41:25.225Z,32.59
2023-05-14T06:42:28.568Z,31.95
2023-05-14T06:43:31.876Z,31.32
2023-05-14T06:44:35.492Z,31.22
2023-05-14T06:45:38.507Z,30.85
2023-05-14T06:46:42.082Z,30.05
2023-05-14T06:47:45.488Z,30.06
2023-05-14T06:48:49.005Z,29.82
2023-05-14T06:49:52.815Z,29.12
2023-05-14T06:50:56.822Z,28.95
2023-05-14T06:52:00.245Z,28.23
2023-05-14T06:53:03.366Z,27.77
2023-05-14T06:54:06.590Z,28.56
2023-05-14T06:55:09.823Z,28.06
2023-05-14T06:56:14.086Z,27.81
2023-05-14T06:57:17.870Z,27.88
2023-05-14T06:58:21.431Z,27.02
2023-05-14T06:59:24.898Z,27.31
2023-05-14T07:00:28.957Z,26.62
2023-05-14T07:01:32.267Z,26.65
2023-05-14T07:02:36.415Z,25.98
2023-05-14T07:03:40.117Z,25.95
2023-05-14T07:04:43.423Z,25.66
2023-05-14T07:05:47.231Z,25.33
2023-05-14T07:06:50.820Z,25.45
2023-05-14T07:07:53.962Z,25.60
2023-05-14T07:08:57.433Z,25.04
2023-05-14T07:10:01.215Z,25.08
2023-05-14T07:11:04.762Z,24.47
2023-05-14T07:12:08.595Z,24.49
2023-05-14T07:13:11.953Z,24.41
2023-05-14T07:14:15.187Z,24.25
2023-05-14T07:15:18.688Z,23.56
2023-05-14T07:16:21.968Z,23.88
2023-05-14T07:17:25.037Z,23.70
2023-05-14T07:18:28.857Z,23.86
2023-05-14T07:19:32.556Z,23.47
2023-05-14T07:20:36.175Z,23.12
2023-05-14T07:21:39.445Z,22.84
2023-05-14T07:22:42.504Z,22.69
2023-05-14T07:23:45.676Z,22.74
2023-05-14T07:24:48.553Z,22.51
2023-05-14T07:25:52.188Z,22.41
2023-05-14T07:26:57.808Z,22.22
2023-05-14T07:28:01.296Z,22.63
2023-05-14T07:29:04.695Z,22.59
2023-05-14T07:30:09.322Z,21.87
2023-05-14T07:31:12.233Z,21.93
2023-05-14T07:32:15.940Z,22.15
2023-05-14T07:33:19.378Z,21.98
2023-05-14T07:34:23.205Z,22.23
2023-05-14T07:35:26.623Z,22.17
2023-05-14T07:36:29.985Z,22.27
2023-05-14T07:37:33.812Z,21.89
2023-05-14T07:38:37.237Z,21.72
2023-05-14T07:39:42.606Z,21.78
2023-05-14T07:40:46.207Z,21.09
2023-05-14T07:41:50.716Z,21.47
2023-05-14T07:42:53.949Z,21.40
2023-05-14T07:43:57.326Z,21.19
2023-05-14T07:45:00.746Z,21.77
2023-05-14T07:46:04.033Z,21.67
2023-05-14T07:47:09.572Z,21.96
2023-05-14T07:48:13.411Z,21.05
2023-05-14T07:49:16.441Z,21.51
2023-05-14T07:50:20.248Z,21.63
2023-05-14T07:51:23.717Z,21.96
2023-05-14T07:52:26.832Z,22.11
2023-05-14T07:53:30.226Z,21.86
2023-05-14T07:54:34.190Z,21.83
2023-05-14T07:55:37.741Z,21.98
2023-05-14T07:56:41.164Z,21.81
2023-05-14T07:57:44.654Z,21.12
2023-05-14T07:58:47.787Z,21.32
2023-05-14T07:59:51.050Z,21.54
2023-05-14T08:00:54.373Z,21.85
2023-05-14T08:01:58.542Z,21.86
2023-05-14T08:03:02.219Z,22.08
2023-05-14T08:04:05.868Z,21.87
2023-05-14T08:05:10.352Z,21.41
2023-05-14T08:06:13.961Z,21.39
2023-05-14T08:07:18.178Z,21.02
2023-05-14T08:08:21.484Z,21.24
2023-05-14T08:09:24.779Z,20.26
2023-05-14T08:10:28.242Z,20.72
2023-05-14T08:11:31.624Z,19.85
2023-05-14T08:12:34.894Z,19.67
2023-05-14T08:13:38.401Z,19.43
2023-05-14T08:14:42.212Z,19.18
2023-05-14T08:15:45.752Z,19.19
2023-05-14T08:16:49.217Z,19.89
2023-05-14T08:17:52.776Z,19.69
2023-05-14T08:18:56.595Z,20.09
2023-05-14T08:20:00.195Z,19.23
2023-05-14T08:21:04.149Z,20.14
2023-05-14T08:22:07.699Z,20.28
2023-05-14T08:23:11.271Z,18.97
2023-05-14T08:24:15.139Z,19.52
2023-05-14T08:25:18.641Z,19.41
2023-05-14T08:26:22.754Z,19.43
2023-05-14T08:27:27.225Z,18.44
2023-05-14T08:28:30.150Z,18.82
2023-05-14T08:29:33.981Z,19.24
2023-05-14T08:30:37.593Z,18.50
2023-05-14T08:31:41.930Z,18.47
2023-05-14T08:32:45.615Z,18.51
2023-05-14T08:33:48.800Z,17.77
2023-05-14T08:34:52.160Z,17.92
2023-05-14T08:35:55.434Z,17.69
2023-05-14T08:36:58.596Z,18.22
2023-05-14T08:38:01.649Z,17.88
2023-05-14T08:39:04.570Z,17.88
2023-05-14T08:40:09.152Z,17.54
2023-05-14T08:41:12.539Z,17.55
2023-05-14T08:42:15.464Z,17.51
2023-05-14T08:43:20.110Z,17.55
2023-05-14T08:44:33.810Z,17.40
2023-05-14T08:45:37.723Z,17.13
2023-05-14T08:46:40.962Z,16.92
2023-05-14T08:47:44.565Z,16.88
2023-05-14T08:48:49.081Z,16.93
2023-05-14T08:50:10.407Z,17.28
2023-05-14T08:51:14.001Z,16.70
2023-05-14T08:52:18.123Z,16.86
2023-05-14T08:53:21.393Z,16.53
2023-05-14T08:54:26.223Z,16.64
2023-05-14T08:55:29.765Z,16.38
2023-05-14T08:56:34.177Z,16.42
2023-05-14T08:57:38.268Z,16.32
2023-05-14T08:58:41.748Z,16.92
2023-05-14T08:59:45.438Z,17.01
2023-05-14T09:00:49.071Z,17.36
2023-05-14T09:01:55.604Z,17.68
2023-05-14T09:02:58.787Z,17.42
2023-05-14T09:04:07.853Z,17.65
2023-05-14T09:05:11.578Z,18.20
2023-05-14T09:06:14.869Z,18.23
2023-05-14T09:07:18.815Z,17.76
2023-05-14T09:08:22.090Z,18.33
2023-05-14T09:09:25.246Z,17.55
2023-05-14T09:10:28.354Z,17.59
2023-05-14T09:11:31.966Z,18.50
2023-05-14T09:12:35.670Z,17.70
2023-05-14T09:13:40.304Z,17.51
2023-05-14T09:14:44.707Z,16.92
2023-05-14T09:15:47.564Z,17.62
2023-05-14T09:16:51.583Z,17.23
2023-05-14T09:17:55.391Z,17.62
2023-05-14T09:18:58.613Z,17.48
2023-05-14T09:20:01.737Z,17.57
2023-05-14T09:21:05.304Z,17.41
2023-05-14T09:22:13.341Z,17.83
2023-05-14T09:23:16.783Z,17.36
2023-05-14T09:24:24.853Z,17.35
2023-05-14T09:25:29.241Z,17.04
2023-05-14T09:26:33.588Z,16.94
2023-05-14T09:27:37.072Z,16.51
2023-05-14T09:28:43.301Z,16.36
2023-05-14T09:29:46.876Z,16.87
2023-05-14T09:30:53.335Z,16.38
2023-05-14T09:31:57.621Z,16.46
2023-05-14T09:33:01.362Z,15.72
2023-05-14T09:34:04.935Z,15.74
2023-05-14T09:35:33.869Z,15.11
2023-05-14T09:36:37.754Z,15.51
2023-05-14T09:37:45.346Z,15.34
2023-05-14T09:38:48.999Z,15.19
2023-05-14T09:39:52.300Z,14.83
2023-05-14T09:40:55.929Z,14.76
2023-05-14T09:41:59.748Z,14.61
2023-05-14T09:43:03.617Z,14.96
2023-05-14T09:44:06.835Z,14.51
2023-05-14T09:45:11.546Z,14.58
2023-05-14T09:46:14.712Z,14.31
2023-05-14T09:47:17.654Z,14.45
2023-05-14T09:48:20.724Z,14.40
2023-05-14T09:49:24.262Z,14.33
2023-05-14T09:50:27.785Z,14.37
2023-05-14T09:51:32.890Z,14.01
2023-05-14T09:52:36.333Z,14.64
2023-05-14T09:53:40.104Z,13.91
2023-05-14T09:54:43.644Z,14.31
2023-05-14T09:55:47.151Z,13.94
2023-05-14T09:56:50.069Z,13.92
2023-05-14T09:57:53.122Z,13.86
2023-05-14T09:58:56.338Z,14.15
2023-05-14T09:59:59.790Z,13.18
2023-05-14T10:01:03.112Z,14.02
2023-05-14T10:02:06.117Z,13.93
2023-05-14T10:03:09.560Z,14.26
2023-05-14T10:04:12.558Z,14.32
2023-05-14T10:05:17.143Z,14.38
2023-05-14T10:06:21.690Z,13.94
2023-05-14T10:07:28.390Z,14.62
2023-05-14T10:08:34.696Z,14.85
2023-05-14T10:09:38.422Z,14.08
2023-05-14T10:10:42.009Z,14.55
2023-05-14T10:11:46.815Z,13.96
2023-05-14T10:13:00.039Z,14.00
2023-05-14T10:14:08.498Z,13.69
2023-05-14T10:15:18.883Z,14.03
2023-05-14T10:16:30.000Z,13.41
2023-05-14T10:17:34.419Z,13.94
2023-05-14T10:18:42.144Z,13.72
2023-05-14T10:19:51.544Z,14.06
2023-05-14T10:21:02.222Z,13.70
2023-05-14T10:22:07.733Z,13.92
2023-05-14T10:23:11.687Z,14.08
2023-05-14T10:24:14.680Z,14.17
2023-05-14T10:25:18.229Z,14.36
2023-05-14T10:26:23.964Z,14.77
2023-05-14T10:27:27.384Z,14.49
2023-05-14T10:28:31.490Z,15.57
2023-05-14T10:29:35.297Z,16.33
2023-05-14T10:30:46.445Z,15.84
2023-05-14T10:31:56.681Z,15.72
2023-05-14T10:33:10.430Z,15.80
2023-05-14T10:34:33.552Z,15.18
2023-05-14T10:35:58.178Z,14.48
2023-05-14T10:37:21.377Z,14.98
2023-05-14T10:38:39.774Z,15.75
2023-05-14T10:39:46.661Z,15.55
2023-05-14T10:40:51.580Z,15.00
2023-05-14T10:41:56.415Z,14.72
2023-05-14T10:42:59.781Z,14.68
2023-05-14T10:44:08.952Z,14.76
2023-05-14T10:45:14.044Z,15.79
2023-05-14T10:46:17.230Z,15.35
2023-05-14T10:47:20.515Z,15.38
2023-05-14T10:48:24.237Z,16.39
2023-05-14T10:49:42.457Z,16.84
2023-05-14T10:50:48.687Z,17.05
2023-05-14T10:51:54.352Z,16.83
2023-05-14T10:52:58.022Z,16.68
2023-05-14T10:54:02.449Z,16.47
2023-05-14T10:55:10.472Z,16.21
2023-05-14T10:56:14.780Z,16.52
2023-05-14T10:57:19.238Z,16.37
2023-05-14T10:58:22.470Z,16.80
2023-05-14T10:59:29.002Z,16.73
2023-05-14T11:00:34.668Z,17.00
2023-05-14T11:01:37.923Z,16.80
2023-05-14T11:02:42.463Z,16.54
2023-05-14T11:03:47.227Z,16.87
2023-05-14T11:05:11.649Z,16.68
2023-05-14T11:06:15.797Z,16.22
2023-05-14T11:07:20.971Z,16.42
2023-05-14T11:08:26.494Z,16.33
2023-05-14T11:09:30.881Z,16.50
2023-05-14T11:10:34.134Z,17.53
2023-05-14T11:11:37.609Z,17.41
2023-05-14T11:12:42.591Z,17.41
2023-05-14T11:13:46.336Z,17.75
2023-05-14T11:14:49.889Z,17.67
2023-05-14T11:15:53.244Z,17.10
2023-05-14T11:16:56.661Z,17.19
2023-05-14T11:18:00.624Z,17.44
2023-05-14T11:19:04.897Z,17.35
2023-05-14T11:20:09.119Z,18.15
2023-05-14T11:21:12.684Z,18.54
2023-05-14T11:22:16.543Z,18.18
2023-05-14T11:23:20.120Z,18.08
2023-05-14T11:24:23.211Z,17.86
2023-05-14T11:25:26.975Z,18.22
2023-05-14T11:26:30.908Z,18.52
2023-05-14T11:27:38.825Z,18.33
2023-05-14T11:28:42.293Z,18.70
2023-05-14T11:29:47.128Z,18.48
2023-05-14T11:30:54.281Z,18.05
2023-05-14T11:31:57.934Z,17.55
2023-05-14T11:33:02.204Z,18.30
2023-05-14T11:34:07.682Z,18.56
2023-05-14T11:35:11.235Z,19.42
2023-05-14T11:36:15.147Z,18.82
2023-05-14T11:37:18.657Z,18.65
2023-05-14T11:38:22.168Z,18.74
2023-05-14T11:39:25.961Z,19.34
2023-05-14T11:40:29.355Z,19.41
2023-05-14T11:41:32.675Z,19.15
2023-05-14T11:42:36.022Z,19.53
2023-05-14T11:43:39.613Z,20.18
2023-05-14T11:44:45.372Z,20.51
2023-05-14T11:45:53.421Z,20.62
2023-05-14T11:46:57.756Z,21.55
2023-05-14T11:48:01.694Z,22.06
2023-05-14T11:49:07.833Z,22.58
2023-05-14T11:50:12.132Z,23.11
2023-05-14T11:51:15.765Z,23.17
2023-05-14T11:52:20.158Z,22.90
2023-05-14T11:53:27.712Z,22.52
2023-05-14T11:54:30.913Z,22.81
2023-05-14T11:55:37.268Z,22.75
2023-05-14T11:56:40.942Z,23.46
2023-05-14T11:57:44.482Z,23.59
2023-05-14T11:58:50.767Z,23.90
2023-05-14T12:00:00.162Z,23.62
2023-05-14T12:01:03.881Z,23.36
2023-05-14T12:02:09.279Z,23.51
2023-05-14T12:03:12.869Z,22.48
2023-05-14T12:04:16.060Z,23.77
2023-05-14T12:05:20.114Z,24.19
2023-05-14T12:06:23.437Z,24.47
2023-05-14T12:07:30.147Z,24.64
2023-05-14T12:08:33.286Z,25.09
2023-05-14T12:09:50.279Z,25.17
2023-05-14T12:10:56.527Z,25.54
2023-05-14T12:12:00.040Z,25.97
2023-05-14T12:13:08.184Z,26.35
2023-05-14T12:14:31.937Z,25.82
2023-05-14T12:15:35.600Z,25.93
2023-05-14T12:16:40.999Z,26.85
2023-05-14T12:17:44.390Z,26.96
2023-05-14T12:18:47.682Z,28.12
2023-05-14T12:19:52.696Z,28.08
2023-05-14T12:20:56.395Z,28.17
2023-05-14T12:22:01.627Z,28.82
2023-05-14T12:23:05.199Z,28.73
2023-05-14T12:24:18.241Z,28.92
2023-05-14T12:25:21.667Z,28.27
2023-05-14T12:26:25.238Z,28.52
2023-05-14T12:27:29.307Z,28.26
2023-05-14T12:28:33.473Z,28.49
2023-05-14T12:29:41.612Z,28.64
2023-05-14T12:30:44.720Z,29.59
2023-05-14T12:31:49.364Z,28.85
2023-05-14T12:32:54.588Z,28.54
2023-05-14T12:33:58.032Z,28.89
2023-05-14T12:35:04.462Z,28.58
2023-05-14T12:36:20.474Z,29.16
2023-05-14T12:37:25.384Z,29.19
2023-05-14T12:38:29.361Z,29.24
2023-05-14T12:39:34.249Z,29.95
2023-05-14T12:40:37.750Z,31.06
2023-05-14T12:41:41.542Z,31.14
2023-05-14T12:42:44.587Z,31.65
2023-05-14T12:43:48.509Z,32.19
2023-05-14T12:44:51.504Z,31.91
2023-05-14T12:45:54.406Z,31.98
2023-05-14T12:46:58.281Z,33.13
2023-05-14T12:48:01.681Z,31.11
2023-05-14T12:49:04.641Z,32.26
2023-05-14T12:50:08.388Z,31.43
2023-05-14T12:51:12.002Z,30.54
2023-05-14T12:53:21.627Z,31.63
2023-05-14T12:54:25.274Z,30.97
2023-05-14T12:55:28.510Z,31.53
2023-05-14T12:56:32.679Z,31.83
2023-05-14T12:57:36.328Z,32.71
2023-05-14T12:58:39.621Z,33.32
2023-05-14T12:59:42.726Z,33.65
2023-05-14T13:00:46.499Z,33.73
2023-05-14T13:01:49.673Z,33.60
2023-05-14T13:02:52.927Z,32.73
2023-05-14T13:03:57.039Z,32.83
2023-05-14T13:05:03.687Z,33.06
2023-05-14T13:06:07.095Z,33.83
2023-05-14T13:07:10.689Z,33.76
2023-05-14T13:08:18.634Z,34.67
2023-05-14T13:09:22.027Z,33.82
2023-05-14T13:10:25.691Z,34.61
2023-05-14T13:11:31.232Z,34.63
2023-05-14T13:12:34.567Z,34.66
2023-05-14T13:13:38.096Z,33.98
2023-05-14T13:14:41.473Z,35.69
2023-05-14T13:15:47.676Z,35.55
2023-05-14T13:16:51.036Z,36.02
2023-05-14T13:17:54.036Z,36.52
2023-05-14T13:18:57.155Z,37.13
2023-05-14T13:20:00.983Z,36.97
2023-05-14T13:21:06.998Z,37.38
2023-05-14T13:22:10.270Z,36.75
2023-05-14T13:23:14.476Z,36.88
2023-05-14T13:24:18.504Z,37.70
2023-05-14T13:25:22.335Z,37.86
2023-05-14T13:26:28.810Z,37.39
2023-05-14T13:27:32.027Z,37.26
2023-05-14T13:28:35.497Z,37.85
2023-05-14T13:29:39.269Z,38.33
2023-05-14T13:30:42.801Z,39.06
2023-05-14T13:31:45.819Z,38.66
2023-05-14T13:32:49.408Z,38.66
2023-05-14T13:33:52.975Z,38.61
2023-05-14T13:34:56.733Z,38.47
2023-05-14T13:36:00.453Z,38.70
2023-05-14T13:37:04.389Z,38.56
2023-05-14T13:38:08.324Z,38.70
2023-05-14T13:39:15.208Z,38.81
2023-05-14T13:40:18.776Z,39.69
2023-05-14T13:41:22.532Z,39.95
2023-05-14T13:42:26.191Z,39.33
2023-05-14T13:43:32.382Z,39.38
2023-05-14T13:44:36.604Z,38.88
2023-05-14T13:45:40.233Z,39.73
2023-05-14T13:46:44.287Z,39.95
2023-05-14T13:47:48.785Z,40.74
2023-05-14T13:48:53.287Z,40.33
2023-05-14T13:49:57.548Z,39.58
2023-05-14T13:51:01.400Z,40.13
2023-05-14T13:52:04.960Z,39.39